Time;durP1;ratioP1;P1;durP2;ratioP2;P2;SDS_P1;SDS_P2;PMS_P1;PMS_P2;Temp;Humidity;BMP_temperature;BMP_pressure;BME280_temperature;BME280_humidity;BME280_pressure;Samples;Min_cycle;Max_cycle;Signal;HPM_P1;HPM_P2
2021/09/12 00:01:04;;;;;;;17.97;16.07;;;17.40;99.90;;;;;;5013818;28;20642;-68
2021/09/12 00:03:30;;;;;;;17.50;14.87;;;17.40;99.90;;;;;;5031603;28;20285;-68
2021/09/12 00:05:56;;;;;;;17.80;15.90;;;17.50;99.90;;;;;;5031572;28;20282;-68
2021/09/12 00:08:21;;;;;;;16.80;14.97;;;17.40;99.90;;;;;;5031166;28;20486;-69
2021/09/12 00:10:47;;;;;;;18.10;16.20;;;17.40;99.90;;;;;;5031691;28;20409;-66
2021/09/12 00:13:12;;;;;;;19.13;15.50;;;17.40;99.90;;;;;;5031356;28;20657;-67
2021/09/12 00:15:38;;;;;;;20.70;17.20;;;17.30;99.90;;;;;;5031529;28;20198;-68
2021/09/12 00:18:06;;;;;;;17.27;15.40;;;17.30;99.90;;;;;;5031195;28;20166;-68
2021/09/12 00:20:32;;;;;;;16.47;14.87;;;17.20;99.90;;;;;;5035128;28;20253;-68
2021/09/12 00:23:00;;;;;;;18.43;15.73;;;17.10;99.90;;;;;;5035000;28;20456;-67
2021/09/12 00:25:26;;;;;;;15.67;14.03;;;17.10;99.90;;;;;;5034782;28;20178;-68
2021/09/12 00:27:51;;;;;;;18.07;16.20;;;17.10;99.90;;;;;;5034886;28;20461;-68
2021/09/12 00:30:17;;;;;;;19.17;17.17;;;17.10;99.90;;;;;;5034834;28;20660;-68
2021/09/12 00:32:42;;;;;;;18.37;16.57;;;17.00;99.90;;;;;;5034751;28;20192;-68
2021/09/12 00:35:09;;;;;;;17.60;15.90;;;17.00;99.90;;;;;;5034835;28;20186;-68
2021/09/12 00:37:36;;;;;;;16.60;14.60;;;17.00;99.90;;;;;;5035003;28;20335;-68
2021/09/12 00:40:03;;;;;;;18.13;16.23;;;17.00;99.90;;;;;;5034372;28;20409;-67
2021/09/12 00:42:28;;;;;;;17.03;15.27;;;17.00;99.90;;;;;;5034493;28;20439;-67
2021/09/12 00:44:53;;;;;;;18.33;16.40;;;17.00;99.90;;;;;;5034440;28;21028;-67
2021/09/12 00:47:20;;;;;;;20.10;15.53;;;17.00;99.90;;;;;;5034719;28;20167;-68
2021/09/12 00:49:45;;;;;;;16.17;14.47;;;17.10;99.90;;;;;;5034454;28;20172;-67
2021/09/12 00:52:13;;;;;;;19.03;16.47;;;17.00;99.90;;;;;;5034451;28;20488;-68
2021/09/12 00:54:40;;;;;;;18.70;15.57;;;17.00;99.90;;;;;;5034542;28;20214;-67
2021/09/12 00:57:09;;;;;;;17.93;16.13;;;16.90;99.90;;;;;;5034341;28;20952;-67
2021/09/12 00:59:36;;;;;;;17.73;15.77;;;16.90;99.90;;;;;;5034435;28;20419;-67
2021/09/12 01:02:03;;;;;;;15.97;14.27;;;16.90;99.90;;;;;;5034758;28;20416;-68
2021/09/12 01:04:29;;;;;;;18.13;16.43;;;16.90;99.90;;;;;;5034493;28;20419;-67
2021/09/12 01:06:54;;;;;;;18.77;16.87;;;16.90;99.90;;;;;;5033896;28;20466;-67
2021/09/12 01:09:20;;;;;;;18.03;16.20;;;16.80;99.90;;;;;;5031218;28;20696;-68
2021/09/12 01:11:45;;;;;;;18.83;16.83;;;16.80;99.90;;;;;;5033905;28;20210;-70
2021/09/12 01:14:11;;;;;;;17.73;15.23;;;16.80;99.90;;;;;;5034009;28;20286;-67
2021/09/12 01:16:36;;;;;;;20.00;16.20;;;16.80;99.90;;;;;;5033952;28;20170;-67
2021/09/12 01:19:02;;;;;;;18.07;16.27;;;16.80;99.90;;;;;;5033686;28;20177;-68
2021/09/12 01:21:28;;;;;;;19.20;17.30;;;16.70;99.90;;;;;;5034385;28;20184;-68
2021/09/12 01:23:53;;;;;;;17.50;15.70;;;16.70;99.90;;;;;;5033932;28;20515;-67
2021/09/12 01:26:22;;;;;;;19.20;16.53;;;16.70;99.90;;;;;;5033882;28;20189;-67
2021/09/12 01:28:48;;;;;;;18.20;16.30;;;16.80;99.90;;;;;;5033633;28;20200;-68
2021/09/12 01:31:22;;;;;;;17.17;15.37;;;16.80;99.90;;;;;;5033134;28;20821;-68
2021/09/12 01:33:47;;;;;;;18.50;15.70;;;16.70;99.90;;;;;;5033673;28;20436;-68
2021/09/12 01:36:13;;;;;;;18.50;16.50;;;16.70;99.90;;;;;;5033682;28;20457;-68
2021/09/12 01:38:38;;;;;;;18.13;16.20;;;16.60;99.90;;;;;;5033565;28;20212;-67
2021/09/12 01:41:04;;;;;;;18.87;16.90;;;16.60;99.90;;;;;;5033524;28;20204;-68
2021/09/12 01:43:29;;;;;;;19.50;17.13;;;16.70;99.90;;;;;;5033488;28;20746;-68
2021/09/12 01:45:54;;;;;;;18.67;16.73;;;16.70;99.90;;;;;;5033324;28;20182;-68
2021/09/12 01:48:20;;;;;;;17.40;15.80;;;16.70;99.90;;;;;;5033193;28;20292;-67
2021/09/12 01:50:45;;;;;;;18.43;16.47;;;16.60;99.90;;;;;;5033361;28;20241;-68
2021/09/12 01:53:11;;;;;;;19.20;17.17;;;16.60;99.90;;;;;;5033186;28;20199;-68
2021/09/12 01:55:36;;;;;;;20.77;18.50;;;16.60;99.90;;;;;;5033389;28;20685;-69
2021/09/12 01:58:02;;;;;;;19.80;17.80;;;16.70;99.90;;;;;;5033115;28;20549;-69
2021/09/12 02:00:27;;;;;;;23.40;16.90;;;16.60;99.90;;;;;;5032960;28;20182;-67
2021/09/12 02:02:53;;;;;;;19.70;17.70;;;16.60;99.90;;;;;;5032969;28;20174;-68
2021/09/12 02:05:18;;;;;;;18.77;16.73;;;16.60;99.90;;;;;;5015297;28;20554;-67
2021/09/12 02:07:44;;;;;;;20.53;17.20;;;16.50;99.90;;;;;;5032943;28;20201;-67
2021/09/12 02:10:10;;;;;;;20.57;18.20;;;16.40;99.90;;;;;;5032985;28;20203;-68
2021/09/12 02:12:35;;;;;;;20.10;18.00;;;16.50;99.90;;;;;;5032857;28;20166;-68
2021/09/12 02:15:01;;;;;;;19.60;17.00;;;16.40;99.90;;;;;;5032698;28;20427;-68
2021/09/12 02:17:26;;;;;;;19.37;17.37;;;16.40;99.90;;;;;;5014853;28;20639;-67
2021/09/12 02:19:51;;;;;;;18.17;16.33;;;16.30;99.90;;;;;;5032714;28;20240;-68
2021/09/12 02:22:17;;;;;;;20.60;18.60;;;16.30;99.90;;;;;;5032601;28;20177;-67
2021/09/12 02:24:42;;;;;;;20.10;16.60;;;16.30;99.90;;;;;;5032553;28;20186;-69
2021/09/12 02:27:08;;;;;;;20.33;16.27;;;16.30;99.90;;;;;;5032520;28;20201;-68
2021/09/12 02:29:34;;;;;;;19.80;17.70;;;16.30;99.90;;;;;;5032353;28;20209;-68
2021/09/12 02:32:00;;;;;;;18.53;16.60;;;16.40;99.90;;;;;;5032478;28;20828;-68
2021/09/12 02:34:25;;;;;;;19.17;16.70;;;16.30;99.90;;;;;;5014648;28;20252;-67
2021/09/12 02:36:51;;;;;;;21.00;17.73;;;16.40;99.90;;;;;;5032343;28;20174;-67
2021/09/12 02:39:16;;;;;;;19.57;17.43;;;16.40;99.90;;;;;;5032384;28;20542;-67
2021/09/12 02:41:42;;;;;;;19.47;17.57;;;16.40;99.90;;;;;;5031658;28;20228;-67
2021/09/12 02:44:07;;;;;;;20.60;18.43;;;16.30;99.90;;;;;;5032214;28;20205;-66
2021/09/12 02:46:33;;;;;;;21.53;17.90;;;16.30;99.90;;;;;;5032556;28;20592;-67
2021/09/12 02:48:58;;;;;;;21.00;18.83;;;16.40;99.90;;;;;;5031968;28;20237;-67
2021/09/12 02:51:24;;;;;;;20.27;18.27;;;16.40;99.90;;;;;;5032215;28;20250;-67
2021/09/12 02:53:49;;;;;;;21.57;19.27;;;16.40;99.90;;;;;;5032155;28;20276;-66
2021/09/12 02:56:15;;;;;;;21.73;19.50;;;16.40;99.90;;;;;;5032471;28;20184;-67
2021/09/12 02:58:41;;;;;;;18.00;16.13;;;16.40;99.90;;;;;;5032052;28;20223;-69
2021/09/12 03:01:07;;;;;;;17.03;15.47;;;16.30;99.90;;;;;;5031783;28;20217;-67
2021/09/12 03:03:32;;;;;;;18.73;16.83;;;16.30;99.90;;;;;;5031986;28;20423;-67
2021/09/12 03:05:58;;;;;;;22.70;20.27;;;16.20;99.90;;;;;;5032196;28;20439;-67
2021/09/12 03:08:24;;;;;;;21.33;19.13;;;16.20;99.90;;;;;;5031366;28;20672;-67
2021/09/12 03:10:49;;;;;;;21.23;19.03;;;16.20;99.90;;;;;;5031757;28;20527;-68
2021/09/12 03:13:15;;;;;;;20.87;18.70;;;16.10;99.90;;;;;;5031717;28;20223;-68
2021/09/12 03:15:40;;;;;;;21.63;18.70;;;16.10;99.90;;;;;;5031981;28;20624;-67
2021/09/12 03:18:06;;;;;;;21.47;19.10;;;16.20;99.90;;;;;;5031949;28;20554;-69
2021/09/12 03:20:31;;;;;;;18.53;16.60;;;16.10;99.90;;;;;;5031867;28;20636;-67
2021/09/12 03:22:57;;;;;;;21.70;19.60;;;16.20;99.90;;;;;;5031597;28;20183;-67
2021/09/12 03:25:22;;;;;;;24.50;20.00;;;16.20;99.90;;;;;;5031862;28;20446;-67
2021/09/12 03:27:48;;;;;;;20.83;18.73;;;16.20;99.90;;;;;;5030855;28;20562;-67
2021/09/12 03:30:14;;;;;;;20.57;18.57;;;16.30;99.90;;;;;;5032067;28;20209;-67
2021/09/12 03:32:40;;;;;;;21.00;18.63;;;16.20;99.90;;;;;;5031478;28;20412;-68
2021/09/12 03:35:05;;;;;;;20.60;18.47;;;16.10;99.90;;;;;;5031794;28;20195;-67
2021/09/12 03:37:31;;;;;;;21.97;19.30;;;16.10;99.90;;;;;;5031372;28;20642;-66
2021/09/12 03:39:57;;;;;;;22.67;20.27;;;16.10;99.90;;;;;;5031686;28;20185;-67
2021/09/12 03:42:22;;;;;;;28.00;19.63;;;16.20;99.90;;;;;;5031502;28;20170;-67
2021/09/12 03:44:48;;;;;;;21.40;19.17;;;16.20;99.90;;;;;;5013788;28;20193;-67
2021/09/12 03:47:13;;;;;;;20.63;18.53;;;16.20;99.90;;;;;;5031464;28;20400;-68
2021/09/12 03:49:38;;;;;;;21.07;18.97;;;16.20;99.90;;;;;;5031389;28;20199;-68
2021/09/12 03:52:04;;;;;;;21.67;19.37;;;16.20;99.90;;;;;;5031897;28;20170;-69
2021/09/12 03:54:30;;;;;;;20.20;18.20;;;16.20;99.90;;;;;;5017868;28;20683;-68
2021/09/12 03:56:55;;;;;;;20.60;18.50;;;16.10;99.90;;;;;;5035455;28;20170;-68
2021/09/12 03:59:21;;;;;;;21.17;19.10;;;16.10;99.90;;;;;;5035374;28;20636;-68
2021/09/12 04:01:46;;;;;;;19.63;17.63;;;16.10;99.90;;;;;;5035393;28;20176;-67
2021/09/12 04:04:11;;;;;;;19.87;17.80;;;16.00;99.90;;;;;;5035311;28;20189;-68
2021/09/12 04:06:37;;;;;;;19.87;17.77;;;16.00;99.90;;;;;;5035313;28;20177;-68
2021/09/12 04:09:02;;;;;;;21.10;18.97;;;16.00;99.90;;;;;;5035083;28;20574;-70
2021/09/12 04:11:28;;;;;;;20.20;18.20;;;16.00;99.90;;;;;;5035130;28;20223;-67
2021/09/12 04:13:53;;;;;;;18.70;16.80;;;16.00;99.90;;;;;;5035038;28;20195;-68
2021/09/12 04:16:19;;;;;;;18.63;16.67;;;16.00;99.90;;;;;;5035352;28;20166;-68
2021/09/12 04:18:44;;;;;;;18.70;16.60;;;16.00;99.90;;;;;;5035239;28;20699;-67
2021/09/12 04:21:10;;;;;;;21.17;19.07;;;16.00;99.90;;;;;;5034918;28;20202;-67
2021/09/12 04:23:35;;;;;;;22.40;18.60;;;16.00;99.90;;;;;;5035144;28;20196;-68
2021/09/12 04:26:01;;;;;;;21.73;18.43;;;16.00;99.90;;;;;;5035107;28;20534;-67
2021/09/12 04:28:26;;;;;;;23.27;19.03;;;16.10;99.90;;;;;;5017208;28;20265;-68
2021/09/12 04:30:52;;;;;;;19.57;17.57;;;16.00;99.90;;;;;;5034966;28;20174;-68
2021/09/12 04:33:17;;;;;;;29.43;16.87;;;15.90;99.90;;;;;;5034851;28;20193;-68
2021/09/12 04:35:42;;;;;;;18.60;16.60;;;15.90;99.90;;;;;;5034970;28;20177;-68
2021/09/12 04:38:08;;;;;;;21.00;18.13;;;15.90;99.90;;;;;;5034946;28;20174;-68
2021/09/12 04:40:33;;;;;;;20.80;18.57;;;15.90;99.90;;;;;;5035263;28;20617;-71
2021/09/12 04:42:59;;;;;;;19.03;17.00;;;15.80;99.90;;;;;;5036384;28;20169;-70
2021/09/12 04:45:24;;;;;;;19.67;17.60;;;15.80;99.90;;;;;;5036398;28;20184;-70
2021/09/12 04:47:50;;;;;;;21.90;18.17;;;15.80;99.90;;;;;;5036296;28;20253;-70
2021/09/12 04:50:15;;;;;;;20.80;18.60;;;15.80;99.90;;;;;;5035977;28;20636;-71
2021/09/12 04:52:43;;;;;;;18.53;16.50;;;15.90;99.90;;;;;;5036950;28;20173;-72
2021/09/12 04:55:09;;;;;;;19.97;17.43;;;16.00;99.90;;;;;;5036336;28;20294;-70
2021/09/12 04:57:34;;;;;;;18.53;16.60;;;15.90;99.90;;;;;;5018031;28;20472;-70
2021/09/12 05:00:00;;;;;;;19.30;17.40;;;15.90;99.90;;;;;;5036074;28;20412;-70
2021/09/12 05:02:26;;;;;;;20.30;18.30;;;15.90;99.90;;;;;;5036456;28;20197;-69
2021/09/12 05:04:51;;;;;;;19.43;17.33;;;15.90;99.90;;;;;;5035263;28;20424;-70
2021/09/12 05:07:17;;;;;;;20.40;18.40;;;15.90;99.90;;;;;;5035820;28;20235;-70
2021/09/12 05:09:42;;;;;;;19.97;17.57;;;15.90;99.90;;;;;;5036362;28;20205;-69
2021/09/12 05:12:08;;;;;;;18.50;16.23;;;16.10;99.90;;;;;;5036518;28;20239;-70
2021/09/12 05:14:33;;;;;;;18.10;16.20;;;16.20;99.90;;;;;;5036481;28;20197;-69
2021/09/12 05:16:59;;;;;;;21.87;18.77;;;16.10;99.90;;;;;;5018380;28;20211;-70
2021/09/12 05:19:24;;;;;;;19.60;17.50;;;16.10;99.90;;;;;;5036526;28;20202;-70
2021/09/12 05:21:50;;;;;;;18.20;16.40;;;16.20;99.90;;;;;;5036713;28;20175;-70
2021/09/12 05:24:15;;;;;;;18.50;16.13;;;16.30;99.90;;;;;;5036596;28;20189;-69
2021/09/12 05:26:41;;;;;;;17.70;15.90;;;16.30;99.90;;;;;;5036678;28;20554;-69
2021/09/12 05:29:06;;;;;;;21.43;16.53;;;16.40;99.90;;;;;;5018108;28;20240;-69
2021/09/12 05:31:32;;;;;;;18.87;16.07;;;16.40;99.90;;;;;;5036334;28;20578;-70
2021/09/12 05:33:57;;;;;;;18.70;16.73;;;16.50;99.90;;;;;;5036034;28;20296;-69
2021/09/12 05:36:23;;;;;;;22.10;14.87;;;16.60;99.90;;;;;;5036188;28;20169;-70
2021/09/12 05:38:49;;;;;;;21.00;15.80;;;16.70;99.90;;;;;;5036432;28;20662;-70
2021/09/12 05:41:15;;;;;;;16.37;14.77;;;16.90;99.90;;;;;;5036108;28;20169;-70
2021/09/12 05:43:41;;;;;;;15.13;13.60;;;17.10;99.90;;;;;;5035029;28;20466;-70
2021/09/12 05:46:06;;;;;;;16.33;14.10;;;17.50;99.90;;;;;;5035337;28;20175;-70
2021/09/12 05:48:32;;;;;;;13.97;12.67;;;17.70;99.90;;;;;;5035348;28;20576;-70
2021/09/12 05:50:57;;;;;;;14.03;12.67;;;17.90;99.90;;;;;;5035733;28;20259;-70
2021/09/12 05:53:24;;;;;;;12.13;11.03;;;18.40;99.90;;;;;;5035212;28;20427;-70
2021/09/12 05:55:50;;;;;;;13.57;9.97;;;18.90;99.90;;;;;;5034245;28;20183;-69
2021/09/12 05:58:15;;;;;;;11.23;10.13;;;19.00;99.90;;;;;;5034246;28;20473;-70
2021/09/12 06:00:41;;;;;;;11.63;10.47;;;18.60;99.90;;;;;;5034211;28;20238;-70
2021/09/12 06:03:07;;;;;;;10.73;9.70;;;18.60;99.90;;;;;;5034032;28;20201;-70
2021/09/12 06:05:32;;;;;;;12.93;9.40;;;18.90;99.90;;;;;;5033522;28;20205;-70
2021/09/12 06:07:58;;;;;;;10.93;9.80;;;19.00;99.90;;;;;;5033193;28;20202;-70
2021/09/12 06:10:24;;;;;;;10.80;9.80;;;19.60;99.90;;;;;;5033156;28;20324;-71
2021/09/12 06:12:49;;;;;;;12.63;9.37;;;19.50;99.90;;;;;;5032848;28;21009;-71
2021/09/12 06:15:15;;;;;;;11.40;10.30;;;19.50;99.90;;;;;;5033052;28;20301;-71
2021/09/12 06:17:40;;;;;;;11.80;9.90;;;19.20;99.90;;;;;;5032715;28;20181;-70
2021/09/12 06:20:06;;;;;;;11.00;10.00;;;19.20;99.90;;;;;;5032857;28;20176;-71
2021/09/12 06:22:32;;;;;;;11.10;10.00;;;19.30;99.90;;;;;;5032452;28;20274;-71
2021/09/12 06:24:57;;;;;;;11.03;9.93;;;19.30;99.90;;;;;;5032868;28;20427;-71
2021/09/12 06:27:23;;;;;;;11.20;10.20;;;19.60;99.90;;;;;;5032695;28;20642;-70
2021/09/12 06:29:48;;;;;;;10.47;9.30;;;19.70;99.90;;;;;;5032502;28;20203;-71
2021/09/12 06:32:14;;;;;;;10.70;9.60;;;20.20;99.90;;;;;;5032643;28;20220;-71
2021/09/12 06:34:39;;;;;;;10.43;9.43;;;20.40;99.90;;;;;;4998341;28;20189;-70
2021/09/12 06:37:06;;;;;;;10.47;9.30;;;20.30;99.90;;;;;;5014335;28;20257;-69
2021/09/12 06:39:32;;;;;;;10.80;9.80;;;20.30;99.90;;;;;;5032276;28;20160;-70
2021/09/12 06:41:57;;;;;;;10.80;9.70;;;20.10;99.90;;;;;;5032075;28;21004;-72
2021/09/12 06:44:23;;;;;;;11.10;10.00;;;20.20;99.90;;;;;;5032268;28;20192;-71
2021/09/12 06:46:48;;;;;;;12.20;11.10;;;20.20;99.90;;;;;;5032008;28;20252;-69
2021/09/12 06:49:14;;;;;;;11.70;10.70;;;20.10;99.90;;;;;;5032020;28;20278;-70
2021/09/12 06:51:39;;;;;;;11.67;10.40;;;20.00;99.90;;;;;;5032435;28;20173;-70
2021/09/12 06:54:05;;;;;;;11.13;9.87;;;20.20;99.90;;;;;;5031691;28;20199;-70
2021/09/12 06:56:30;;;;;;;11.60;10.40;;;20.40;99.90;;;;;;5032000;28;20634;-70
2021/09/12 06:58:55;;;;;;;11.10;10.10;;;19.90;99.90;;;;;;5031862;28;20219;-69
2021/09/12 07:01:21;;;;;;;11.10;10.00;;;20.00;99.90;;;;;;5014312;28;20179;-71
2021/09/12 07:03:46;;;;;;;11.77;10.27;;;20.00;99.90;;;;;;5031828;28;20195;-70
2021/09/12 07:06:12;;;;;;;13.83;11.40;;;19.70;99.90;;;;;;5031909;28;20193;-70
2021/09/12 07:08:37;;;;;;;12.70;11.40;;;19.30;99.90;;;;;;5031944;28;20198;-71
2021/09/12 07:11:03;;;;;;;16.17;11.80;;;19.60;99.90;;;;;;5031975;28;20680;-71
2021/09/12 07:13:29;;;;;;;12.73;10.97;;;19.10;99.90;;;;;;5032057;28;20183;-71
2021/09/12 07:15:54;;;;;;;12.53;11.33;;;19.10;99.90;;;;;;5032010;28;20825;-70
2021/09/12 07:18:20;;;;;;;11.60;10.43;;;19.00;99.90;;;;;;5031991;28;20179;-70
2021/09/12 07:20:45;;;;;;;12.10;10.90;;;19.40;99.90;;;;;;5031376;28;20620;-70
2021/09/12 07:23:11;;;;;;;11.47;10.37;;;19.40;99.90;;;;;;5031745;28;20708;-71
2021/09/12 07:25:36;;;;;;;10.93;9.83;;;19.70;99.90;;;;;;5013731;28;20266;-70
2021/09/12 07:28:02;;;;;;;15.40;10.30;;;19.70;99.90;;;;;;5031058;28;20206;-72
2021/09/12 07:30:27;;;;;;;12.23;11.03;;;19.80;99.90;;;;;;5031748;28;20234;-72
2021/09/12 07:32:54;;;;;;;14.13;11.73;;;19.50;99.90;;;;;;5031773;28;20201;-72
2021/09/12 07:35:52;;;;;;;14.03;11.53;;;19.10;99.90;;;;;;5014381;28;20226;-73
2021/09/12 07:38:17;;;;;;;12.07;10.70;;;19.50;99.90;;;;;;5027754;28;20755;-71
2021/09/12 07:40:46;;;;;;;11.77;10.57;;;19.40;99.90;;;;;;5031796;28;20416;-70
2021/09/12 07:43:17;;;;;;;11.03;9.93;;;19.30;99.90;;;;;;5031749;28;20198;-71
2021/09/12 07:45:47;;;;;;;11.83;10.63;;;19.30;99.90;;;;;;5031531;28;20541;-71
2021/09/12 07:48:18;;;;;;;13.00;11.57;;;19.60;99.90;;;;;;5031656;28;20547;-71
2021/09/12 07:50:47;;;;;;;12.30;11.23;;;19.40;99.90;;;;;;5031512;28;20920;-71
2021/09/12 07:53:13;;;;;;;13.83;12.23;;;19.60;99.90;;;;;;5031512;28;20428;-71
2021/09/12 07:55:41;;;;;;;13.30;11.90;;;19.60;99.90;;;;;;5013635;28;20439;-71
2021/09/12 07:58:08;;;;;;;11.37;10.20;;;19.40;99.90;;;;;;5031158;28;20413;-70
2021/09/12 08:00:34;;;;;;;12.83;11.53;;;19.30;99.90;;;;;;5031237;28;20428;-70
2021/09/12 08:02:59;;;;;;;11.70;10.60;;;19.10;99.90;;;;;;5031147;28;20407;-71
2021/09/12 08:05:25;;;;;;;13.87;11.63;;;19.10;99.90;;;;;;5031356;28;20410;-71
2021/09/12 08:07:50;;;;;;;13.27;11.87;;;19.10;99.90;;;;;;5013390;28;20191;-71
2021/09/12 08:10:16;;;;;;;11.93;10.73;;;19.40;99.90;;;;;;5031222;28;20164;-72
2021/09/12 08:12:42;;;;;;;13.93;11.67;;;19.80;99.90;;;;;;5031184;28;20207;-72
2021/09/12 08:15:08;;;;;;;15.33;12.50;;;19.70;99.90;;;;;;5031275;28;20193;-72
2021/09/12 08:17:34;;;;;;;13.40;12.10;;;19.50;99.90;;;;;;5031020;28;20656;-72
2021/09/12 08:19:59;;;;;;;13.20;11.90;;;19.30;99.90;;;;;;5031501;28;20429;-71
2021/09/12 08:22:25;;;;;;;12.87;11.40;;;19.20;99.90;;;;;;5030899;28;20171;-71
2021/09/12 08:24:50;;;;;;;14.60;12.60;;;19.40;99.90;;;;;;5030859;28;20211;-71
2021/09/12 08:27:19;;;;;;;14.27;12.80;;;19.10;99.90;;;;;;5030669;28;20173;-69
2021/09/12 08:29:44;;;;;;;13.50;12.17;;;19.20;99.90;;;;;;5030791;28;20306;-70
2021/09/12 08:32:10;;;;;;;13.33;12.00;;;19.40;99.90;;;;;;5031020;28;20440;-72
2021/09/12 08:34:38;;;;;;;10.80;9.70;;;19.50;99.90;;;;;;5031300;28;20192;-72
2021/09/12 08:37:04;;;;;;;12.27;11.13;;;19.40;99.90;;;;;;5030838;28;20178;-72
2021/09/12 08:39:30;;;;;;;14.60;12.20;;;19.60;99.90;;;;;;5013752;28;20416;-72
2021/09/12 08:41:58;;;;;;;12.70;11.03;;;19.70;99.90;;;;;;5034741;28;20490;-71
2021/09/12 08:44:24;;;;;;;12.60;11.50;;;19.90;99.90;;;;;;5034550;28;20202;-72
2021/09/12 08:46:50;;;;;;;13.33;11.93;;;19.70;99.90;;;;;;5034630;28;20776;-72
2021/09/12 08:49:16;;;;;;;13.13;11.70;;;19.70;99.90;;;;;;5034423;28;20205;-71
2021/09/12 08:51:42;;;;;;;12.90;11.80;;;19.60;99.90;;;;;;5034546;28;20938;-72
2021/09/12 08:54:07;;;;;;;13.50;11.20;;;19.80;99.90;;;;;;5034107;28;20519;-72
2021/09/12 08:56:33;;;;;;;13.17;11.63;;;19.80;99.90;;;;;;5034621;28;20496;-71
2021/09/12 08:58:59;;;;;;;11.77;10.67;;;19.70;99.90;;;;;;5034449;28;20624;-72
2021/09/12 09:01:35;;;;;;;12.03;10.87;;;19.80;99.90;;;;;;5034446;28;20254;-72
2021/09/12 09:04:02;;;;;;;12.87;11.57;;;19.60;99.90;;;;;;5034184;28;20274;-72
2021/09/12 09:06:35;;;;;;;13.23;12.03;;;20.00;99.90;;;;;;5034293;28;20511;-71
2021/09/12 09:09:03;;;;;;;12.57;11.20;;;20.00;99.90;;;;;;5034113;28;20861;-74
2021/09/12 09:11:31;;;;;;;12.20;10.90;;;20.20;99.90;;;;;;5034434;28;20409;-70
2021/09/12 09:14:18;;;;;;;11.13;10.10;;;20.50;99.90;;;;;;5034370;28;20456;-70
2021/09/12 09:16:51;;;;;;;12.50;11.10;;;20.80;99.90;;;;;;5034421;28;20424;-70
2021/09/12 09:19:18;;;;;;;11.57;10.47;;;20.70;99.90;;;;;;5034508;28;20414;-68
2021/09/12 09:21:46;;;;;;;11.80;10.60;;;20.60;99.90;;;;;;5034666;28;20755;-68
2021/09/12 09:24:22;;;;;;;11.90;10.80;;;20.90;99.90;;;;;;5034397;28;20428;-69
2021/09/12 09:26:56;;;;;;;12.97;10.87;;;21.60;99.90;;;;;;5035155;28;20766;-68
2021/09/12 09:29:24;;;;;;;12.77;11.57;;;21.00;99.90;;;;;;5034687;28;20456;-70
2021/09/12 09:32:09;;;;;;;12.67;11.30;;;20.60;99.90;;;;;;5034877;28;20421;-68
2021/09/12 09:34:37;;;;;;;14.80;9.87;;;20.90;99.90;;;;;;5034502;28;20459;-69
2021/09/12 09:37:13;;;;;;;12.20;11.00;;;20.50;99.90;;;;;;5034768;28;20504;-69
2021/09/12 09:39:49;;;;;;;11.40;10.40;;;20.90;99.90;;;;;;5034538;28;20458;-68
2021/09/12 09:42:34;;;;;;;10.60;9.10;;;21.10;99.90;;;;;;5033400;28;20423;-69
2021/09/12 09:45:02;;;;;;;12.77;11.47;;;21.00;99.90;;;;;;5033749;28;20444;-69
2021/09/12 09:47:28;;;;;;;12.27;11.07;;;21.00;99.90;;;;;;5033515;28;20440;-69
2021/09/12 09:50:06;;;;;;;11.90;10.67;;;20.80;99.90;;;;;;5033548;28;20500;-69
2021/09/12 09:52:33;;;;;;;11.93;10.83;;;21.00;99.90;;;;;;5033095;28;20416;-69
2021/09/12 09:54:59;;;;;;;12.57;10.80;;;21.10;99.90;;;;;;5015313;28;20454;-69
2021/09/12 09:57:25;;;;;;;11.27;10.27;;;21.50;99.90;;;;;;5032929;28;20413;-69
2021/09/12 09:59:53;;;;;;;14.57;10.30;;;21.20;99.90;;;;;;5033111;28;20505;-69
2021/09/12 10:02:19;;;;;;;11.17;10.00;;;21.90;99.90;;;;;;5032940;28;20413;-70
2021/09/12 10:04:45;;;;;;;10.50;9.50;;;21.80;99.90;;;;;;5032923;28;20436;-69
2021/09/12 10:07:12;;;;;;;10.53;9.63;;;22.40;99.90;;;;;;5032874;28;20237;-69
2021/09/12 10:09:38;;;;;;;10.27;9.33;;;22.00;99.90;;;;;;5032792;28;20197;-70
2021/09/12 10:12:08;;;;;;;9.40;8.47;;;22.20;99.90;;;;;;5032799;28;20413;-69
2021/09/12 10:14:47;;;;;;;11.40;10.23;;;22.50;99.90;;;;;;5032684;28;20433;-68
2021/09/12 10:17:19;;;;;;;11.27;10.07;;;22.60;99.90;;;;;;5032421;28;20435;-68
2021/09/12 10:19:44;;;;;;;9.13;8.23;;;22.60;99.90;;;;;;5015106;28;20456;-68
2021/09/12 10:22:18;;;;;;;9.27;8.40;;;23.00;99.90;;;;;;5032601;28;20440;-69
2021/09/12 10:25:08;;;;;;;9.93;8.93;;;23.40;99.90;;;;;;5032477;28;20210;-69
2021/09/12 10:27:40;;;;;;;8.60;7.90;;;23.10;99.90;;;;;;5032461;28;20435;-68
2021/09/12 10:30:25;;;;;;;9.10;8.30;;;23.20;99.90;;;;;;5032433;28;20418;-68
2021/09/12 10:33:07;;;;;;;9.27;8.40;;;22.60;99.90;;;;;;5031931;28;20543;-68
2021/09/12 10:35:55;;;;;;;10.00;9.00;;;22.30;99.90;;;;;;5015077;28;20434;-68
2021/09/12 10:38:36;;;;;;;9.47;8.70;;;22.40;99.90;;;;;;5032456;28;20395;-68
2021/09/12 10:41:01;;;;;;;9.23;8.33;;;23.00;99.90;;;;;;5032095;28;20448;-68
2021/09/12 10:43:33;;;;;;;9.40;8.43;;;23.40;99.90;;;;;;5031948;28;20766;-70
2021/09/12 10:46:19;;;;;;;8.80;7.90;;;22.60;99.90;;;;;;5032430;28;20166;-69
2021/09/12 10:49:02;;;;;;;14.40;8.40;;;22.50;99.90;;;;;;5032045;28;20443;-70
2021/09/12 10:51:30;;;;;;;9.63;7.37;;;22.70;99.90;;;;;;5012673;28;20408;-71
2021/09/12 10:53:55;;;;;;;9.37;8.23;;;23.20;99.90;;;;;;5012394;28;20519;-72
2021/09/12 10:56:21;;;;;;;8.00;7.30;;;23.10;99.90;;;;;;5012619;28;20447;-70
2021/09/12 10:59:17;;;;;;;9.30;8.43;;;22.60;99.90;;;;;;5029689;28;20190;-70
2021/09/12 11:01:48;;;;;;;7.93;7.23;;;22.10;99.90;;;;;;5028957;28;20523;-68
2021/09/12 11:04:17;;;;;;;8.10;7.30;;;22.00;99.90;;;;;;5031550;28;20450;-68
2021/09/12 11:06:49;;;;;;;8.37;7.47;;;21.90;99.90;;;;;;5032113;28;20494;-69
2021/09/12 11:09:24;;;;;;;8.53;7.73;;;22.30;99.90;;;;;;5031691;28;20464;-69
2021/09/12 11:12:03;;;;;;;7.50;6.80;;;22.70;99.90;;;;;;5013933;28;20415;-70
2021/09/12 11:14:35;;;;;;;8.50;7.70;;;23.00;99.90;;;;;;5031848;28;20427;-68
2021/09/12 11:17:11;;;;;;;5.97;5.30;;;22.70;99.90;;;;;;5031580;28;20402;-69
2021/09/12 11:19:37;;;;;;;6.73;6.23;;;23.30;99.90;;;;;;5031889;28;20416;-69
2021/09/12 11:22:03;;;;;;;7.10;6.40;;;23.10;99.90;;;;;;5013774;28;20845;-68
2021/09/12 11:24:32;;;;;;;7.10;6.50;;;22.70;99.90;;;;;;5013702;28;20438;-68
2021/09/12 11:27:00;;;;;;;6.97;6.37;;;22.50;99.90;;;;;;5013858;28;21004;-69
2021/09/12 11:29:28;;;;;;;6.50;5.40;;;22.70;99.90;;;;;;5031340;28;20913;-70
2021/09/12 11:32:03;;;;;;;6.27;5.67;;;23.20;99.90;;;;;;5031128;28;20410;-70
2021/09/12 11:34:34;;;;;;;6.80;6.20;;;23.30;99.90;;;;;;5031777;28;20499;-68
2021/09/12 11:37:07;;;;;;;6.33;5.10;;;23.20;99.90;;;;;;5031382;28;20399;-68
2021/09/12 11:39:38;;;;;;;6.47;5.80;;;22.90;99.90;;;;;;5031382;28;20405;-68
2021/09/12 11:42:07;;;;;;;6.07;5.53;;;22.70;99.90;;;;;;5031176;28;20418;-69
2021/09/12 11:44:39;;;;;;;8.93;6.23;;;22.60;99.90;;;;;;5031454;28;20438;-69
2021/09/12 11:47:19;;;;;;;6.50;5.90;;;22.60;99.90;;;;;;5031831;28;20842;-69
2021/09/12 11:50:00;;;;;;;6.17;5.67;;;22.80;99.90;;;;;;5031588;28;20458;-70
2021/09/12 11:52:36;;;;;;;6.50;5.90;;;22.90;99.90;;;;;;5031565;28;20449;-69
2021/09/12 11:55:27;;;;;;;5.90;5.43;;;22.50;99.90;;;;;;5031422;28;21036;-68
2021/09/12 11:58:07;;;;;;;5.53;5.13;;;22.90;99.90;;;;;;5031492;28;20427;-68
2021/09/12 12:00:36;;;;;;;5.97;5.50;;;22.30;99.90;;;;;;5031845;28;20803;-69
2021/09/12 12:03:02;;;;;;;5.27;4.63;;;22.50;99.90;;;;;;5031469;28;20418;-69
2021/09/12 12:05:30;;;;;;;5.20;4.77;;;22.10;99.90;;;;;;5031604;28;20412;-68
2021/09/12 12:08:05;;;;;;;4.90;4.50;;;22.50;99.90;;;;;;5031397;28;20466;-69
2021/09/12 12:10:36;;;;;;;4.93;4.40;;;23.00;99.90;;;;;;5031638;28;20949;-69
2021/09/12 12:13:01;;;;;;;5.90;5.00;;;23.50;99.90;;;;;;5031026;28;20410;-68
2021/09/12 12:16:02;;;;;;;5.33;4.33;;;23.40;99.90;;;;;;5035074;28;20461;-69
2021/09/12 12:18:28;;;;;;;6.03;5.60;;;22.70;99.90;;;;;;5018028;28;20730;-68
2021/09/12 12:20:56;;;;;;;9.40;5.20;;;22.80;99.90;;;;;;5035100;28;20459;-69
2021/09/12 12:23:28;;;;;;;5.93;5.43;;;22.70;99.90;;;;;;5017204;28;20449;-69
2021/09/12 12:25:54;;;;;;;5.57;5.07;;;22.40;99.90;;;;;;5017069;28;20959;-68
2021/09/12 12:28:28;;;;;;;6.10;4.37;;;22.40;99.90;;;;;;5035179;28;20446;-69
2021/09/12 12:31:14;;;;;;;5.73;4.50;;;22.40;99.90;;;;;;5001236;28;20465;-68
2021/09/12 12:33:42;;;;;;;4.40;4.10;;;22.70;99.90;;;;;;5017622;28;20433;-69